createdAt,value
2022-09-12T00:00:32.998Z,4.10
2022-09-12T00:03:02.222Z,3.93
2022-09-12T00:05:31.273Z,3.57
2022-09-12T00:07:59.108Z,4.63
2022-09-12T00:10:27.202Z,3.73
2022-09-12T00:12:54.957Z,4.07
2022-09-12T00:15:22.663Z,4.37
2022-09-12T00:17:50.506Z,3.90
2022-09-12T00:20:20.162Z,4.13
2022-09-12T00:22:47.876Z,4.17
2022-09-12T00:25:16.590Z,4.53
2022-09-12T00:27:44.415Z,5.33
2022-09-12T00:30:12.874Z,5.03
2022-09-12T00:32:40.906Z,4.93
2022-09-12T00:35:10.167Z,5.53
2022-09-12T00:37:40.656Z,4.50
2022-09-12T00:40:10.214Z,4.80
2022-09-12T00:42:38.339Z,4.00
2022-09-12T00:45:06.573Z,4.77
2022-09-12T00:47:34.614Z,4.73
2022-09-12T00:50:06.994Z,4.43
2022-09-12T00:52:36.899Z,4.33
2022-09-12T00:55:11.511Z,3.90
2022-09-12T00:57:42.512Z,4.10
2022-09-12T01:00:14.597Z,4.00
2022-09-12T01:02:43.008Z,3.50
2022-09-12T01:05:12.391Z,4.37
2022-09-12T01:07:41.018Z,4.20
2022-09-12T01:10:10.907Z,3.87
2022-09-12T01:12:40.488Z,4.23
2022-09-12T01:15:08.937Z,4.20
2022-09-12T01:17:43.606Z,3.90
2022-09-12T01:20:26.542Z,4.37
2022-09-12T01:23:06.078Z,4.67
2022-09-12T01:25:37.968Z,4.50
2022-09-12T01:28:14.689Z,3.90
2022-09-12T01:30:48.658Z,3.80
2022-09-12T01:33:26.585Z,3.87
2022-09-12T01:36:03.061Z,3.63
2022-09-12T01:38:36.392Z,3.37
2022-09-12T01:41:10.707Z,3.87
2022-09-12T01:43:42.183Z,3.83
2022-09-12T01:46:14.369Z,3.90
2022-09-12T01:48:46.119Z,3.90
2022-09-12T01:51:18.529Z,4.00
2022-09-12T01:53:49.716Z,4.03
2022-09-12T01:56:20.354Z,3.67
2022-09-12T01:58:51.225Z,4.20
2022-09-12T02:01:22.992Z,3.40
2022-09-12T02:03:53.652Z,3.23
2022-09-12T02:06:23.693Z,3.40
2022-09-12T02:08:53.472Z,3.60
2022-09-12T02:11:27.984Z,3.67
2022-09-12T02:13:58.908Z,3.23
2022-09-12T02:16:32.379Z,3.20
2022-09-12T02:19:04.703Z,3.73
2022-09-12T02:21:33.239Z,3.63
2022-09-12T02:24:03.854Z,3.47
2022-09-12T02:26:34.003Z,4.50
2022-09-12T02:29:01.692Z,3.57
2022-09-12T02:31:35.235Z,4.17
2022-09-12T02:34:10.401Z,3.83
2022-09-12T02:36:45.219Z,3.83
2022-09-12T02:39:13.537Z,3.83
2022-09-12T02:41:42.458Z,3.97
2022-09-12T02:44:10.283Z,3.40
2022-09-12T02:46:40.975Z,4.00
2022-09-12T02:49:09.494Z,3.70
2022-09-12T02:51:37.649Z,4.13
2022-09-12T02:54:06.726Z,4.03
2022-09-12T02:56:34.701Z,3.90
2022-09-12T02:59:04.645Z,4.10
2022-09-12T03:01:40.534Z,4.30
2022-09-12T03:04:23.146Z,4.60
2022-09-12T03:06:59.612Z,4.37
2022-09-12T03:09:32.603Z,3.87
2022-09-12T03:12:06.186Z,4.17
2022-09-12T03:14:44.210Z,4.60
2022-09-12T03:17:16.030Z,4.07
2022-09-12T03:19:49.547Z,4.20
2022-09-12T03:22:23.049Z,4.40
2022-09-12T03:24:53.262Z,3.67
2022-09-12T03:27:23.743Z,4.00
2022-09-12T03:29:51.831Z,3.63
2022-09-12T03:32:19.621Z,3.63
2022-09-12T03:34:47.360Z,3.90
2022-09-12T03:37:15.088Z,4.10
2022-09-12T03:39:44.512Z,4.50
2022-09-12T03:42:12.299Z,4.30
2022-09-12T03:44:40.561Z,4.83
2022-09-12T03:47:11.228Z,5.13
2022-09-12T03:49:39.235Z,4.77
2022-09-12T03:52:07.138Z,4.40
2022-09-12T03:54:34.935Z,4.67
2022-09-12T03:57:04.528Z,4.77
2022-09-12T03:59:32.291Z,5.20
2022-09-12T04:01:59.995Z,4.90
2022-09-12T04:04:28.530Z,4.77
2022-09-12T04:06:56.418Z,4.47
2022-09-12T04:09:24.752Z,4.40
2022-09-12T04:11:52.640Z,4.67
2022-09-12T04:14:21.870Z,4.43
2022-09-12T04:16:50.201Z,4.57
2022-09-12T04:19:18.395Z,4.27
2022-09-12T04:21:46.123Z,4.30
2022-09-12T04:24:14.198Z,4.50
2022-09-12T04:26:42.431Z,4.50
2022-09-12T04:29:11.060Z,3.93
2022-09-12T04:31:40.797Z,4.70
2022-09-12T04:34:08.804Z,4.53
2022-09-12T04:36:37.842Z,4.47
2022-09-12T04:39:07.867Z,4.50
2022-09-12T04:41:38.291Z,4.53
2022-09-12T04:44:07.363Z,4.70
2022-09-12T04:46:36.353Z,4.47
2022-09-12T04:49:05.778Z,4.83
2022-09-12T04:51:34.843Z,4.63
2022-09-12T04:54:06.634Z,4.50
2022-09-12T04:56:36.126Z,4.57
2022-09-12T04:59:03.785Z,4.63
2022-09-12T05:01:31.839Z,4.37
2022-09-12T05:04:00.459Z,4.40
2022-09-12T05:06:30.291Z,5.07
2022-09-12T05:08:58.682Z,5.67
2022-09-12T05:11:41.139Z,4.30
2022-09-12T05:14:15.271Z,5.53
2022-09-12T05:16:47.201Z,4.67
2022-09-12T05:19:17.376Z,4.27
2022-09-12T05:21:46.877Z,4.70
2022-09-12T05:24:15.233Z,4.50
2022-09-12T05:26:43.236Z,4.33
2022-09-12T05:29:13.361Z,4.50
2022-09-12T05:31:41.602Z,4.50
2022-09-12T05:34:10.381Z,4.17
2022-09-12T05:36:38.732Z,3.80
2022-09-12T05:39:07.851Z,4.30
2022-09-12T05:41:36.274Z,3.73
2022-09-12T05:44:05.986Z,4.30
2022-09-12T05:46:38.054Z,4.33
2022-09-12T05:49:06.180Z,4.10
2022-09-12T05:51:34.945Z,4.10
2022-09-12T05:54:04.213Z,3.60
2022-09-12T05:56:34.742Z,4.53
2022-09-12T05:59:03.544Z,3.67
2022-09-12T06:01:32.167Z,3.63
2022-09-12T06:04:01.116Z,3.73
2022-09-12T06:06:29.942Z,3.23
2022-09-12T06:08:58.859Z,3.80
2022-09-12T06:11:29.102Z,3.37
2022-09-12T06:13:58.795Z,3.53
2022-09-12T06:16:28.882Z,3.93
2022-09-12T06:18:57.886Z,4.20
2022-09-12T06:21:26.647Z,3.70
2022-09-12T06:24:01.344Z,3.30
2022-09-12T06:26:29.928Z,3.23
2022-09-12T06:29:00.605Z,3.30
2022-09-12T06:31:29.537Z,2.50
2022-09-12T06:33:58.562Z,3.40
2022-09-12T06:36:28.016Z,3.77
2022-09-12T06:38:57.840Z,3.80
2022-09-12T06:41:26.378Z,3.80
2022-09-12T06:43:54.576Z,3.53
2022-09-12T06:46:24.096Z,3.73
2022-09-12T06:48:52.112Z,4.23
2022-09-12T06:51:20.995Z,3.80
2022-09-12T06:53:49.883Z,4.13
2022-09-12T06:56:20.620Z,4.07
2022-09-12T06:58:49.371Z,4.33
2022-09-12T07:01:17.974Z,4.83
2022-09-12T07:03:51.073Z,4.40
2022-09-12T07:06:19.410Z,3.13
2022-09-12T07:08:47.670Z,4.80
2022-09-12T07:11:16.007Z,3.90
2022-09-12T07:13:44.471Z,3.53
2022-09-12T07:16:17.302Z,3.27
2022-09-12T07:18:51.178Z,3.80
2022-09-12T07:21:20.567Z,4.57
2022-09-12T07:23:49.396Z,4.47
2022-09-12T07:26:18.131Z,4.20
2022-09-12T07:28:46.223Z,3.73
2022-09-12T07:31:15.313Z,3.80
2022-09-12T07:33:43.609Z,3.80
2022-09-12T07:36:13.557Z,3.40
2022-09-12T07:38:44.128Z,4.27
2022-09-12T07:41:12.535Z,3.33
2022-09-12T07:43:40.589Z,3.90
2022-09-12T07:46:08.488Z,4.20
2022-09-12T07:48:37.241Z,4.53
2022-09-12T07:51:06.405Z,4.20
2022-09-12T07:53:35.331Z,4.50
2022-09-12T07:56:05.747Z,4.10
2022-09-12T07:58:34.913Z,4.27
2022-09-12T08:01:03.641Z,5.90
2022-09-12T08:03:31.611Z,4.47
2022-09-12T08:06:04.483Z,5.33
2022-09-12T08:08:32.351Z,4.53
2022-09-12T08:11:00.895Z,4.50
2022-09-12T08:13:30.832Z,4.83
2022-09-12T08:16:00.040Z,3.70
2022-09-12T08:18:29.023Z,3.90
2022-09-12T08:21:00.046Z,4.03
2022-09-12T08:23:29.398Z,3.90
2022-09-12T08:25:58.008Z,7.67
2022-09-12T08:28:26.326Z,5.73
2022-09-12T08:30:56.268Z,3.90
2022-09-12T08:33:27.444Z,5.50
2022-09-12T08:35:55.480Z,5.47
2022-09-12T08:38:23.441Z,3.70
2022-09-12T08:40:54.840Z,3.93
2022-09-12T08:43:28.337Z,5.50
2022-09-12T08:46:01.544Z,3.30
2022-09-12T08:48:29.330Z,3.40
2022-09-12T08:50:57.173Z,3.97
2022-09-12T08:53:29.375Z,8.93
2022-09-12T08:55:59.240Z,8.50
2022-09-12T08:58:28.026Z,3.40
2022-09-12T09:01:00.181Z,2.77
2022-09-12T09:03:51.935Z,3.20
2022-09-12T09:06:26.111Z,4.87
2022-09-12T09:08:58.855Z,3.23
2022-09-12T09:11:40.604Z,4.63
2022-09-12T09:14:41.547Z,3.37
2022-09-12T09:17:13.770Z,3.40
2022-09-12T09:19:44.953Z,3.77
2022-09-12T09:22:18.362Z,4.37
2022-09-12T09:24:49.984Z,3.97
2022-09-12T09:27:40.483Z,3.90
2022-09-12T09:30:10.786Z,3.60
2022-09-12T09:32:42.147Z,4.13
2022-09-12T09:35:15.749Z,5.13
2022-09-12T09:37:45.040Z,4.50
2022-09-12T09:40:19.461Z,4.17
2022-09-12T09:42:51.991Z,4.17
2022-09-12T09:45:22.310Z,3.83
2022-09-12T09:47:52.631Z,3.90
2022-09-12T09:50:20.671Z,4.40
2022-09-12T09:52:48.715Z,3.50
2022-09-12T09:55:17.720Z,3.97
2022-09-12T09:57:47.396Z,4.87
2022-09-12T10:00:26.763Z,4.07
2022-09-12T10:03:04.817Z,3.20
2022-09-12T10:05:34.702Z,3.70
2022-09-12T10:08:03.371Z,3.93
2022-09-12T10:10:31.135Z,3.40
2022-09-12T10:13:08.718Z,3.40
2022-09-12T10:15:36.775Z,3.60
2022-09-12T10:18:07.066Z,3.23
2022-09-12T10:20:36.263Z,2.90
2022-09-12T10:23:17.569Z,3.33
2022-09-12T10:25:47.496Z,3.77
2022-09-12T10:28:27.171Z,4.00
2022-09-12T10:30:56.241Z,4.07
2022-09-12T10:33:27.405Z,4.30
2022-09-12T10:35:55.858Z,4.07
2022-09-12T10:38:25.512Z,4.03
2022-09-12T10:40:57.973Z,4.43
2022-09-12T10:43:28.339Z,4.40
2022-09-12T10:45:58.637Z,4.13
2022-09-12T10:48:30.261Z,3.93
2022-09-12T10:50:58.003Z,4.67
2022-09-12T10:53:28.981Z,3.47
2022-09-12T10:56:05.460Z,3.00
2022-09-12T10:58:42.087Z,3.10
2022-09-12T11:01:16.066Z,3.00
2022-09-12T11:03:54.458Z,3.70
2022-09-12T11:06:27.342Z,3.50
2022-09-12T11:09:00.796Z,4.37
2022-09-12T11:11:44.352Z,3.57
2022-09-12T11:14:15.636Z,3.80
2022-09-12T11:16:48.729Z,4.10
2022-09-12T11:19:33.751Z,4.13
2022-09-12T11:22:10.714Z,3.77
2022-09-12T11:24:56.078Z,4.03
2022-09-12T11:27:29.900Z,4.70
2022-09-12T11:29:59.978Z,4.67
2022-09-12T11:32:43.930Z,4.87
2022-09-12T11:35:18.410Z,4.53
2022-09-12T11:38:01.944Z,3.97
2022-09-12T11:40:33.845Z,4.10
2022-09-12T11:43:03.741Z,4.00
2022-09-12T11:45:36.773Z,3.90
2022-09-12T11:48:07.743Z,3.40
2022-09-12T11:50:35.650Z,4.20
2022-09-12T11:53:06.517Z,3.50
2022-09-12T11:55:40.624Z,4.07
2022-09-12T11:58:09.762Z,3.27
2022-09-12T12:00:39.283Z,3.93
2022-09-12T12:03:10.061Z,3.63
2022-09-12T12:05:41.583Z,3.50
2022-09-12T12:08:09.990Z,3.40
2022-09-12T12:10:41.058Z,3.20
2022-09-12T12:13:14.320Z,3.33
2022-09-12T12:15:49.490Z,3.60
2022-09-12T12:18:19.535Z,3.93
2022-09-12T12:20:47.610Z,3.10
2022-09-12T12:23:28.587Z,3.47
2022-09-12T12:25:58.757Z,3.53
2022-09-12T12:28:54.019Z,2.30
2022-09-12T12:31:21.797Z,2.50
2022-09-12T12:34:06.455Z,2.17
2022-09-12T12:36:40.483Z,2.00
2022-09-12T12:39:26.921Z,1.97
2022-09-12T12:42:05.252Z,2.03
2022-09-12T12:44:49.738Z,2.40
2022-09-12T12:47:19.337Z,2.70
2022-09-12T12:49:52.145Z,2.70
2022-09-12T12:52:21.012Z,2.90
2022-09-12T12:54:57.682Z,2.80
2022-09-12T12:57:41.996Z,2.90
2022-09-12T13:00:26.918Z,2.83
2022-09-12T13:02:57.904Z,3.27
2022-09-12T13:05:28.300Z,3.37
2022-09-12T13:07:57.074Z,3.17
2022-09-12T13:10:27.017Z,3.20
2022-09-12T13:12:57.615Z,3.27
2022-09-12T13:15:44.178Z,3.03
2022-09-12T13:18:14.644Z,3.40
2022-09-12T13:20:48.327Z,3.33
2022-09-12T13:23:23.162Z,3.63
2022-09-12T13:25:53.780Z,3.53
2022-09-12T13:28:26.750Z,3.23
2022-09-12T13:31:00.254Z,4.10
2022-09-12T13:33:32.752Z,3.83
2022-09-12T13:36:17.733Z,3.70
2022-09-12T13:38:52.583Z,3.50
2022-09-12T13:41:25.426Z,4.00
2022-09-12T13:43:56.704Z,4.20
2022-09-12T13:46:28.695Z,3.57
2022-09-12T13:48:57.115Z,3.87
2022-09-12T13:51:27.359Z,3.87
2022-09-12T13:53:57.512Z,3.47
2022-09-12T13:56:25.480Z,4.00
2022-09-12T13:58:56.918Z,3.50
2022-09-12T14:01:25.447Z,4.30
2022-09-12T14:04:11.632Z,4.20
2022-09-12T14:06:48.232Z,4.80
2022-09-12T14:09:18.359Z,4.53
2022-09-12T14:11:54.891Z,5.00
2022-09-12T14:14:29.511Z,4.83
2022-09-12T14:16:58.524Z,4.63
2022-09-12T14:19:27.466Z,5.03
2022-09-12T14:21:55.701Z,5.27
2022-09-12T14:24:24.322Z,4.50
2022-09-12T14:26:54.271Z,3.87
2022-09-12T14:29:22.978Z,4.83
2022-09-12T14:32:04.052Z,4.67
2022-09-12T14:34:32.200Z,5.00
2022-09-12T14:37:00.112Z,5.03
2022-09-12T14:39:31.257Z,4.20
2022-09-12T14:42:03.610Z,4.77
2022-09-12T14:44:32.406Z,4.07
2022-09-12T14:47:02.410Z,4.10
2022-09-12T14:49:33.787Z,4.73
2022-09-12T14:52:02.991Z,4.90
2022-09-12T14:54:42.972Z,4.27
2022-09-12T14:57:32.047Z,4.07
2022-09-12T15:00:06.896Z,4.37
2022-09-12T15:02:35.043Z,3.90
2022-09-12T15:05:49.545Z,4.07
2022-09-12T15:08:17.724Z,5.07
2022-09-12T15:10:45.430Z,6.23
2022-09-12T15:13:20.890Z,4.77
2022-09-12T15:15:51.136Z,5.40
2022-09-12T15:18:19.757Z,4.70
2022-09-12T15:20:51.304Z,3.90
2022-09-12T15:23:20.853Z,4.40
2022-09-12T15:25:48.671Z,4.27
2022-09-12T15:28:20.954Z,4.23
2022-09-12T15:30:50.587Z,5.50
2022-09-12T15:33:19.357Z,4.20
2022-09-12T15:35:47.592Z,4.70
2022-09-12T15:38:17.509Z,5.07
2022-09-12T15:40:46.684Z,4.13
2022-09-12T15:43:14.840Z,5.17
2022-09-12T15:45:43.367Z,4.77
2022-09-12T15:48:11.359Z,4.67
2022-09-12T15:50:39.314Z,5.60
2022-09-12T15:53:07.020Z,4.73
2022-09-12T15:55:37.407Z,4.70
2022-09-12T15:58:07.398Z,5.00
2022-09-12T16:00:35.899Z,6.47
2022-09-12T16:03:03.757Z,4.73
2022-09-12T16:05:31.986Z,4.37
2022-09-12T16:07:59.927Z,3.90
2022-09-12T16:10:30.163Z,4.50
2022-09-12T16:12:59.880Z,6.57
2022-09-12T16:15:27.634Z,5.60
2022-09-12T16:17:55.940Z,5.00
2022-09-12T16:20:24.530Z,4.80
2022-09-12T16:22:52.866Z,6.07
2022-09-12T16:25:22.304Z,5.30
2022-09-12T16:27:50.423Z,5.90
2022-09-12T16:30:19.674Z,6.43
2022-09-12T16:32:47.581Z,5.50
2022-09-12T16:35:15.392Z,6.90
2022-09-12T16:37:43.429Z,6.27
2022-09-12T16:40:12.057Z,5.83
2022-09-12T16:42:43.615Z,4.73
2022-09-12T16:45:13.728Z,5.13
2022-09-12T16:47:43.094Z,4.67
2022-09-12T16:50:11.476Z,4.80
2022-09-12T16:52:39.292Z,5.97
2022-09-12T16:55:07.848Z,5.60
2022-09-12T16:57:35.574Z,9.53
2022-09-12T17:00:03.558Z,5.30
2022-09-12T17:02:31.448Z,5.13
2022-09-12T17:05:02.164Z,5.47
2022-09-12T17:07:30.530Z,5.17
2022-09-12T17:09:58.694Z,4.10
2022-09-12T17:12:26.839Z,5.10
2022-09-12T17:14:54.543Z,4.30
2022-09-12T17:17:22.830Z,5.07
2022-09-12T17:19:51.010Z,4.30
2022-09-12T17:22:21.166Z,4.50
2022-09-12T17:24:48.948Z,5.60
2022-09-12T17:27:17.217Z,4.77
2022-09-12T17:29:45.088Z,5.13
2022-09-12T17:32:17.346Z,4.87
2022-09-12T17:34:45.567Z,5.97
2022-09-12T17:37:14.351Z,6.00
2022-09-12T17:39:43.494Z,5.67
2022-09-12T17:42:11.252Z,4.07
2022-09-12T17:44:39.654Z,5.87
2022-09-12T17:47:07.725Z,8.60
2022-09-12T17:49:35.955Z,8.17
2022-09-12T17:52:04.053Z,10.03
2022-09-12T17:54:31.777Z,6.03
2022-09-12T17:57:01.187Z,6.73
2022-09-12T17:59:29.074Z,5.27
2022-09-12T18:02:14.050Z,4.30
2022-09-12T18:04:42.151Z,5.17
2022-09-12T18:07:10.739Z,6.33
2022-09-12T18:09:39.105Z,5.80
2022-09-12T18:12:09.115Z,7.40
2022-09-12T18:14:38.174Z,10.53
2022-09-12T18:17:07.084Z,4.87
2022-09-12T18:19:35.657Z,4.83
2022-09-12T18:22:05.970Z,5.77
2022-09-12T18:24:33.762Z,5.73
2022-09-12T18:27:03.930Z,3.93
2022-09-12T18:29:33.533Z,3.33
2022-09-12T18:32:01.679Z,3.60
2022-09-12T18:34:30.897Z,4.27
2022-09-12T18:36:59.272Z,3.97
2022-09-12T18:39:27.995Z,4.33
2022-09-12T18:41:56.474Z,3.83
2022-09-12T18:44:24.623Z,3.87
2022-09-12T18:46:54.544Z,3.67
2022-09-12T18:49:22.281Z,3.20
2022-09-12T18:51:50.666Z,3.50
2022-09-12T18:54:18.974Z,3.73
2022-09-12T18:56:47.796Z,4.40
2022-09-12T18:59:15.747Z,4.03
2022-09-12T19:01:43.963Z,4.07
2022-09-12T19:04:16.675Z,3.57
2022-09-12T19:06:46.287Z,3.83
2022-09-12T19:09:15.085Z,3.30
2022-09-12T19:11:48.932Z,3.10
2022-09-12T19:14:17.185Z,3.33
2022-09-12T19:16:44.858Z,3.53
2022-09-12T19:19:14.414Z,3.20
2022-09-12T19:21:43.623Z,3.80
2022-09-12T19:24:11.422Z,3.50
2022-09-12T19:26:40.843Z,3.47
2022-09-12T19:29:08.645Z,3.03
2022-09-12T19:31:36.441Z,3.20
2022-09-12T19:34:05.953Z,3.70
2022-09-12T19:36:46.002Z,3.40
2022-09-12T19:39:14.899Z,3.17
2022-09-12T19:41:42.654Z,3.57
2022-09-12T19:44:11.630Z,3.07
2022-09-12T19:46:40.598Z,3.40
2022-09-12T19:49:09.034Z,2.90
2022-09-12T19:51:38.155Z,2.90
2022-09-12T19:54:06.236Z,3.07
2022-09-12T19:56:34.281Z,3.60
2022-09-12T19:59:02.943Z,3.00
2022-09-12T20:01:30.840Z,3.10
2022-09-12T20:03:59.393Z,3.43
2022-09-12T20:06:27.641Z,3.77
2022-09-12T20:08:58.129Z,3.13
2022-09-12T20:11:26.341Z,3.10
2022-09-12T20:13:55.794Z,3.00
2022-09-12T20:16:25.966Z,3.50
2022-09-12T20:18:54.774Z,3.23
2022-09-12T20:21:25.411Z,2.90
2022-09-12T20:23:56.023Z,2.90
2022-09-12T20:26:26.665Z,3.20
2022-09-12T20:28:54.466Z,3.07
2022-09-12T20:31:22.249Z,3.20
2022-09-12T20:33:52.079Z,3.30
2022-09-12T20:36:21.815Z,3.37
2022-09-12T20:38:50.285Z,3.17
2022-09-12T20:41:19.149Z,2.90
2022-09-12T20:43:49.915Z,2.90
2022-09-12T20:46:21.622Z,2.80
2022-09-12T20:48:50.344Z,2.77
2022-09-12T20:51:18.399Z,2.97
2022-09-12T20:53:46.735Z,2.80
2022-09-12T20:56:15.221Z,2.90
2022-09-12T20:58:44.424Z,2.90
2022-09-12T21:01:16.127Z,3.30
2022-09-12T21:03:44.633Z,3.10
2022-09-12T21:06:13.637Z,2.77
2022-09-12T21:08:41.560Z,2.97
2022-09-12T21:11:09.309Z,3.30
2022-09-12T21:13:37.849Z,3.27
2022-09-12T21:16:06.626Z,3.47
2022-09-12T21:18:36.818Z,3.30
2022-09-12T21:21:05.141Z,3.10
2022-09-12T21:23:32.990Z,2.73
2022-09-12T21:26:01.026Z,3.30
2022-09-12T21:28:29.320Z,3.83
2022-09-12T21:30:57.081Z,3.10
2022-09-12T21:33:25.000Z,3.27
2022-09-12T21:35:54.135Z,3.03
2022-09-12T21:38:22.455Z,2.83
2022-09-12T21:40:52.827Z,3.37
2022-09-12T21:43:20.646Z,3.30
2022-09-12T21:45:48.541Z,3.40
2022-09-12T21:48:16.173Z,3.10
2022-09-12T21:50:44.194Z,3.23
2022-09-12T21:53:13.847Z,3.00
2022-09-12T21:55:43.209Z,3.17
2022-09-12T21:58:11.558Z,3.00
2022-09-12T22:00:39.728Z,2.93
2022-09-12T22:03:08.671Z,2.80
2022-09-12T22:05:36.403Z,2.80
2022-09-12T22:08:05.094Z,3.37
2022-09-12T22:10:34.620Z,2.80
2022-09-12T22:13:02.863Z,3.07
2022-09-12T22:15:45.925Z,3.60
2022-09-12T22:18:14.043Z,3.07
2022-09-12T22:20:41.921Z,3.20
2022-09-12T22:23:28.789Z,3.57
2022-09-12T22:25:58.220Z,2.70
2022-09-12T22:28:25.927Z,2.80
2022-09-12T22:30:54.983Z,2.90
2022-09-12T22:33:23.130Z,2.80
2022-09-12T22:35:50.898Z,2.60
2022-09-12T22:38:18.891Z,3.17
2022-09-12T22:40:46.847Z,3.13
2022-09-12T22:43:16.128Z,2.83
2022-09-12T22:45:44.211Z,3.10
2022-09-12T22:48:12.038Z,2.40
2022-09-12T22:50:40.013Z,2.63
2022-09-12T22:53:07.773Z,2.73
2022-09-12T22:55:37.083Z,3.20
2022-09-12T22:58:05.137Z,2.97
2022-09-12T23:00:34.787Z,3.03
2022-09-12T23:03:02.791Z,2.80
2022-09-12T23:05:30.678Z,3.10
2022-09-12T23:07:59.124Z,3.10
2022-09-12T23:10:27.679Z,2.80
2022-09-12T23:12:55.543Z,3.10
2022-09-12T23:15:23.259Z,3.10
2022-09-12T23:17:53.301Z,3.03
2022-09-12T23:20:21.059Z,2.83
2022-09-12T23:22:48.784Z,3.00
2022-09-12T23:25:16.710Z,2.93
2022-09-12T23:27:44.600Z,3.03
2022-09-12T23:30:13.125Z,3.03
2022-09-12T23:32:41.411Z,3.07
2022-09-12T23:35:10.939Z,2.73
2022-09-12T23:37:38.841Z,3.47
2022-09-12T23:40:07.662Z,2.90
2022-09-12T23:42:35.413Z,3.20
2022-09-12T23:45:03.113Z,3.07
2022-09-12T23:47:30.935Z,3.33
2022-09-12T23:49:59.171Z,3.53
2022-09-12T23:52:28.602Z,3.23
2022-09-12T23:54:56.797Z,3.03
2022-09-12T23:57:24.704Z,3.23
2022-09-12T23:59:53.816Z,3.43
